Time;durP1;ratioP1;P1;durP2;ratioP2;P2;SDS_P1;SDS_P2;PMS_P1;PMS_P2;Temp;Humidity;BMP_temperature;BMP_pressure;BME280_temperature;BME280_humidity;BME280_pressure;Samples;Min_cycle;Max_cycle;Signal;HPM_P1;HPM_P2
2023/07/23 00:01:08;;;;;;;12.68;6.68;;;14.60;99.90;;;;;;5079770;28;20040;-59
2023/07/23 00:03:34;;;;;;;15.43;7.75;;;14.60;99.90;;;;;;5079802;28;20050;-59
2023/07/23 00:05:59;;;;;;;15.85;7.55;;;14.50;99.90;;;;;;5079132;28;20486;-58
2023/07/23 00:08:25;;;;;;;13.00;6.93;;;14.60;99.90;;;;;;5079672;28;20432;-59
2023/07/23 00:10:57;;;;;;;12.90;7.57;;;14.60;99.90;;;;;;5078242;28;20048;-59
2023/07/23 00:13:23;;;;;;;12.05;7.40;;;14.60;99.90;;;;;;5078744;28;20079;-59
2023/07/23 00:15:49;;;;;;;12.80;7.28;;;14.60;99.90;;;;;;5077359;28;20040;-59
2023/07/23 00:18:14;;;;;;;14.98;8.23;;;14.50;99.90;;;;;;5079318;28;20050;-59
2023/07/23 00:20:40;;;;;;;14.48;8.05;;;14.50;99.90;;;;;;5078002;28;20052;-59
2023/07/23 00:23:06;;;;;;;12.02;7.63;;;14.40;99.90;;;;;;5078793;28;20075;-59
2023/07/23 00:25:31;;;;;;;15.10;8.18;;;14.50;99.90;;;;;;5079247;28;20036;-58
2023/07/23 00:27:57;;;;;;;13.20;7.40;;;14.40;99.90;;;;;;5078320;28;20064;-59
2023/07/23 00:30:22;;;;;;;12.48;7.53;;;14.50;99.90;;;;;;5079512;28;20044;-59
2023/07/23 00:32:48;;;;;;;13.80;8.02;;;14.40;99.90;;;;;;5078042;28;20122;-59
2023/07/23 00:35:14;;;;;;;14.90;7.53;;;14.50;99.90;;;;;;5077663;28;20047;-60
2023/07/23 00:37:40;;;;;;;13.80;8.15;;;14.40;99.90;;;;;;5078838;28;20519;-59
2023/07/23 00:40:07;;;;;;;16.83;8.30;;;14.40;99.90;;;;;;5078563;28;20052;-60
2023/07/23 00:42:33;;;;;;;13.65;8.20;;;14.40;99.90;;;;;;5078890;28;20036;-60
2023/07/23 00:44:59;;;;;;;11.75;7.10;;;14.40;99.90;;;;;;5069535;28;20059;-59
2023/07/23 00:47:25;;;;;;;13.32;8.32;;;14.30;99.90;;;;;;5076185;28;20045;-58
2023/07/23 00:49:51;;;;;;;12.98;7.15;;;14.30;99.90;;;;;;5057988;28;20529;-58
2023/07/23 00:52:17;;;;;;;11.57;7.10;;;14.40;99.90;;;;;;5058949;28;20062;-58
2023/07/23 00:54:43;;;;;;;12.75;6.72;;;14.40;99.90;;;;;;5078540;28;20083;-58
2023/07/23 00:57:10;;;;;;;13.65;7.50;;;14.40;99.90;;;;;;5078136;28;20029;-58
2023/07/23 00:59:38;;;;;;;14.68;7.93;;;14.40;99.90;;;;;;5078547;28;20048;-58
2023/07/23 01:02:04;;;;;;;13.57;7.63;;;14.50;99.90;;;;;;5077189;28;20047;-58
2023/07/23 01:04:31;;;;;;;13.30;8.25;;;14.40;99.90;;;;;;5078606;28;20044;-58
2023/07/23 01:06:59;;;;;;;14.38;7.60;;;14.40;99.90;;;;;;5076913;28;20596;-57
2023/07/23 01:09:26;;;;;;;14.75;7.90;;;14.40;99.90;;;;;;5078235;28;20480;-58
2023/07/23 01:11:53;;;;;;;15.18;8.07;;;14.30;99.90;;;;;;5078259;28;20055;-58
2023/07/23 01:14:19;;;;;;;14.40;7.95;;;14.40;99.90;;;;;;5077952;28;20059;-57
2023/07/23 01:16:45;;;;;;;15.45;8.05;;;14.30;99.90;;;;;;5078020;28;20041;-58
2023/07/23 01:19:12;;;;;;;14.88;7.88;;;14.30;99.90;;;;;;5077237;28;20070;-58
2023/07/23 01:21:38;;;;;;;13.82;8.00;;;14.40;99.90;;;;;;5078761;28;20111;-58
2023/07/23 01:24:04;;;;;;;13.20;7.53;;;14.30;99.90;;;;;;5077286;28;20126;-58
2023/07/23 01:26:30;;;;;;;13.98;8.27;;;14.40;99.90;;;;;;5078382;28;20044;-58
2023/07/23 01:28:55;;;;;;;11.88;7.75;;;14.30;99.90;;;;;;5075912;28;20032;-58
2023/07/23 01:31:21;;;;;;;13.48;7.85;;;14.30;99.90;;;;;;5077771;28;20032;-58
2023/07/23 01:33:47;;;;;;;13.35;7.78;;;14.40;99.90;;;;;;5077987;28;20068;-58
2023/07/23 01:36:14;;;;;;;15.02;8.48;;;14.40;99.90;;;;;;5076742;28;20087;-59
2023/07/23 01:38:40;;;;;;;14.00;7.80;;;14.30;99.90;;;;;;5078303;28;20058;-59
2023/07/23 01:41:06;;;;;;;13.63;7.43;;;14.40;99.90;;;;;;5076651;28;20044;-59
2023/07/23 01:43:32;;;;;;;14.95;7.75;;;14.40;99.90;;;;;;5078359;28;20104;-59
2023/07/23 01:45:58;;;;;;;13.82;7.93;;;14.40;99.90;;;;;;5077310;28;20059;-59
2023/07/23 01:48:23;;;;;;;13.75;8.25;;;14.40;99.90;;;;;;5077943;28;20048;-60
2023/07/23 01:50:49;;;;;;;12.20;7.25;;;14.40;99.90;;;;;;5078296;28;20458;-60
2023/07/23 01:53:15;;;;;;;16.02;7.20;;;14.40;99.90;;;;;;5075821;28;20083;-60
2023/07/23 01:55:41;;;;;;;12.55;7.28;;;14.30;99.90;;;;;;5077981;28;20053;-61
2023/07/23 01:58:06;;;;;;;11.38;6.60;;;14.40;99.90;;;;;;5076980;28;20083;-60
2023/07/23 02:00:32;;;;;;;13.07;6.88;;;14.30;99.90;;;;;;5078085;28;20051;-59
2023/07/23 02:02:58;;;;;;;12.65;6.72;;;14.30;99.90;;;;;;5077322;28;20068;-59
2023/07/23 02:05:24;;;;;;;10.93;6.28;;;14.30;99.90;;;;;;5077848;28;20044;-59
2023/07/23 02:07:49;;;;;;;12.45;7.18;;;14.30;99.90;;;;;;5077542;28;20059;-59
2023/07/23 02:10:20;;;;;;;12.32;7.18;;;14.30;99.90;;;;;;5077212;28;20041;-58
2023/07/23 02:12:46;;;;;;;12.73;7.10;;;14.40;99.90;;;;;;5077328;28;20480;-60
2023/07/23 02:15:12;;;;;;;12.52;6.75;;;14.40;99.90;;;;;;5076597;28;20404;-59
2023/07/23 02:17:38;;;;;;;16.15;6.80;;;14.40;99.90;;;;;;5077344;28;20040;-60
2023/07/23 02:20:06;;;;;;;12.13;6.70;;;14.30;99.90;;;;;;5076462;28;20043;-58
2023/07/23 02:22:32;;;;;;;12.30;6.85;;;14.40;99.90;;;;;;5077305;28;20048;-60
2023/07/23 02:24:57;;;;;;;11.57;6.35;;;14.40;99.90;;;;;;5076201;28;20064;-61
2023/07/23 02:27:23;;;;;;;12.18;6.80;;;14.40;99.90;;;;;;5076587;28;20051;-61
2023/07/23 02:29:49;;;;;;;15.07;7.20;;;14.40;99.90;;;;;;5077802;28;20052;-63
2023/07/23 02:32:14;;;;;;;11.82;6.88;;;14.30;99.90;;;;;;5076190;28;20036;-65
2023/07/23 02:34:40;;;;;;;12.63;6.80;;;14.30;99.90;;;;;;5077742;28;20098;-65
2023/07/23 02:37:06;;;;;;;14.63;6.75;;;14.30;99.90;;;;;;5076239;28;20094;-62
2023/07/23 02:39:31;;;;;;;12.52;6.68;;;14.30;99.90;;;;;;5078592;28;20051;-61
2023/07/23 02:41:57;;;;;;;13.57;7.07;;;14.40;99.90;;;;;;5081072;28;20048;-58
2023/07/23 02:44:23;;;;;;;11.85;5.95;;;14.40;99.90;;;;;;5075545;28;20037;-59
2023/07/23 02:46:48;;;;;;;12.60;6.47;;;14.30;99.90;;;;;;5074173;28;20056;-59
2023/07/23 02:49:14;;;;;;;11.40;6.95;;;14.30;99.90;;;;;;5060259;28;20457;-58
2023/07/23 02:51:40;;;;;;;13.13;6.38;;;14.40;99.90;;;;;;5061561;28;20071;-59
2023/07/23 02:54:08;;;;;;;11.73;6.28;;;14.40;99.90;;;;;;5075523;28;20056;-58
2023/07/23 02:56:35;;;;;;;11.73;6.32;;;14.30;99.90;;;;;;5080698;28;20045;-58
2023/07/23 02:59:02;;;;;;;10.80;6.18;;;14.40;99.90;;;;;;5080554;28;20067;-58
2023/07/23 03:01:28;;;;;;;14.55;7.13;;;14.40;99.90;;;;;;5080555;28;20037;-58
2023/07/23 03:03:54;;;;;;;14.48;7.20;;;14.30;99.90;;;;;;5080738;28;20094;-58
2023/07/23 03:06:19;;;;;;;12.23;6.75;;;14.40;99.90;;;;;;5078224;28;20076;-58
2023/07/23 03:08:45;;;;;;;14.18;7.18;;;14.40;99.90;;;;;;5080998;28;20044;-58
2023/07/23 03:11:11;;;;;;;13.50;6.95;;;14.30;99.90;;;;;;5079608;28;20053;-58
2023/07/23 03:13:37;;;;;;;12.13;6.80;;;14.40;99.90;;;;;;5079510;28;20052;-59
2023/07/23 03:16:03;;;;;;;12.27;6.60;;;14.30;99.90;;;;;;5079162;28;20049;-58
2023/07/23 03:18:28;;;;;;;12.23;7.25;;;14.30;99.90;;;;;;5080096;28;20075;-59
2023/07/23 03:20:54;;;;;;;13.60;7.30;;;14.30;99.90;;;;;;5080616;28;20060;-59
2023/07/23 03:23:20;;;;;;;12.57;6.20;;;14.30;99.90;;;;;;5079819;28;20044;-59
2023/07/23 03:25:46;;;;;;;12.57;6.90;;;14.30;99.90;;;;;;5080662;28;20630;-59
2023/07/23 03:28:12;;;;;;;13.55;6.45;;;14.30;99.90;;;;;;5079146;28;20511;-59
2023/07/23 03:30:37;;;;;;;12.07;6.50;;;14.30;99.90;;;;;;5080644;28;20510;-59
2023/07/23 03:33:03;;;;;;;13.45;6.63;;;14.30;99.90;;;;;;5079921;28;20077;-59
2023/07/23 03:35:29;;;;;;;14.10;7.10;;;14.30;99.90;;;;;;5079874;28;20113;-59
2023/07/23 03:37:55;;;;;;;11.75;6.53;;;14.40;99.90;;;;;;5079655;28;20066;-60
2023/07/23 03:40:21;;;;;;;11.45;6.47;;;14.30;99.90;;;;;;5079239;28;20053;-60
2023/07/23 03:42:46;;;;;;;13.70;7.38;;;14.40;99.90;;;;;;5080260;28;20044;-60
2023/07/23 03:45:12;;;;;;;13.43;6.90;;;14.40;99.90;;;;;;5078772;28;20036;-60
2023/07/23 03:47:38;;;;;;;13.20;6.55;;;14.30;99.90;;;;;;5080621;28;20051;-61
2023/07/23 03:50:04;;;;;;;13.57;6.47;;;14.30;99.90;;;;;;5078660;28;20083;-60
2023/07/23 03:52:30;;;;;;;13.48;6.78;;;14.40;99.90;;;;;;5079806;28;20119;-60
2023/07/23 03:54:55;;;;;;;12.20;7.00;;;14.30;99.90;;;;;;5079523;28;20098;-60
2023/07/23 03:57:21;;;;;;;14.82;6.53;;;14.40;99.90;;;;;;5079096;28;20037;-60
2023/07/23 03:59:47;;;;;;;12.63;6.32;;;14.40;99.90;;;;;;5079831;28;20044;-59
2023/07/23 04:02:13;;;;;;;12.85;7.20;;;14.30;99.90;;;;;;5078825;28;20387;-60
2023/07/23 04:04:39;;;;;;;13.38;7.47;;;14.30;99.90;;;;;;5080293;28;20063;-61
2023/07/23 04:07:06;;;;;;;13.32;7.20;;;14.20;99.90;;;;;;5078764;28;20067;-60
2023/07/23 04:09:32;;;;;;;10.63;7.00;;;14.30;99.90;;;;;;5079396;28;20036;-60
2023/07/23 04:11:58;;;;;;;13.73;7.65;;;14.30;99.90;;;;;;5079665;28;20503;-59
2023/07/23 04:14:24;;;;;;;13.93;7.65;;;14.30;99.90;;;;;;5078522;28;20071;-60
2023/07/23 04:16:50;;;;;;;14.32;7.32;;;14.40;99.90;;;;;;5079652;28;20037;-59
2023/07/23 04:19:16;;;;;;;14.45;7.50;;;14.40;99.90;;;;;;5078243;28;20063;-59
2023/07/23 04:21:42;;;;;;;13.55;7.47;;;14.30;99.90;;;;;;5079815;28;20044;-60
2023/07/23 04:24:08;;;;;;;14.38;7.68;;;14.40;99.90;;;;;;5077897;28;20047;-60
2023/07/23 04:26:34;;;;;;;13.52;7.38;;;14.30;99.90;;;;;;5079405;28;20071;-60
2023/07/23 04:29:00;;;;;;;13.88;7.72;;;14.30;99.90;;;;;;5078795;28;20044;-59
2023/07/23 04:31:26;;;;;;;14.73;7.70;;;14.30;99.90;;;;;;5078507;28;20056;-60
2023/07/23 04:33:52;;;;;;;13.68;8.48;;;14.30;99.90;;;;;;5079094;28;20032;-59
2023/07/23 04:36:18;;;;;;;13.95;7.38;;;14.30;99.90;;;;;;5077810;28;20056;-60
2023/07/23 04:38:44;;;;;;;12.45;7.38;;;14.30;99.90;;;;;;5079014;28;20150;-60
2023/07/23 04:41:11;;;;;;;13.45;7.40;;;14.40;99.90;;;;;;5078119;28;20079;-60
2023/07/23 04:43:37;;;;;;;12.65;6.65;;;14.40;99.90;;;;;;5077861;28;20041;-61
2023/07/23 04:46:04;;;;;;;13.27;7.68;;;14.30;99.90;;;;;;5069166;28;20070;-60
2023/07/23 04:48:31;;;;;;;14.23;6.97;;;14.30;99.90;;;;;;5069469;28;20073;-60
2023/07/23 04:50:58;;;;;;;11.48;6.38;;;14.30;99.90;;;;;;5059055;28;20096;-62
2023/07/23 04:53:24;;;;;;;15.77;8.02;;;14.40;99.90;;;;;;5063033;28;20033;-61
2023/07/23 04:55:52;;;;;;;16.10;8.27;;;14.40;99.90;;;;;;5068106;28;20107;-59
2023/07/23 04:58:18;;;;;;;13.30;7.15;;;14.40;99.90;;;;;;5057541;28;20081;-58
2023/07/23 05:00:43;;;;;;;15.85;7.75;;;14.40;99.90;;;;;;5058839;28;20056;-60
2023/07/23 05:03:11;;;;;;;13.00;7.20;;;14.40;99.90;;;;;;5057466;28;20044;-60
2023/07/23 05:05:41;;;;;;;11.57;7.28;;;14.30;99.90;;;;;;5056979;28;20403;-59
2023/07/23 05:08:07;;;;;;;11.18;6.72;;;14.40;99.90;;;;;;5058472;28;20041;-59
2023/07/23 05:10:32;;;;;;;13.88;8.13;;;14.40;99.90;;;;;;5057446;28;20055;-58
2023/07/23 05:12:58;;;;;;;13.23;7.80;;;14.40;99.90;;;;;;5058956;28;20473;-59
2023/07/23 05:15:24;;;;;;;13.63;7.38;;;14.40;99.90;;;;;;5057327;28;20087;-60
2023/07/23 05:17:49;;;;;;;13.48;7.57;;;14.40;99.90;;;;;;5058743;28;20047;-60
2023/07/23 05:20:15;;;;;;;16.95;7.63;;;14.40;99.90;;;;;;5057863;28;20519;-60
2023/07/23 05:22:41;;;;;;;13.10;7.13;;;14.40;99.90;;;;;;5058128;28;20047;-61
2023/07/23 05:25:08;;;;;;;12.10;6.90;;;14.40;99.90;;;;;;5053921;28;20109;-62
2023/07/23 05:27:34;;;;;;;13.57;7.53;;;14.40;99.90;;;;;;5053734;28;20053;-62
2023/07/23 05:30:00;;;;;;;15.30;7.65;;;14.40;99.90;;;;;;5054559;28;20083;-62
2023/07/23 05:32:26;;;;;;;11.98;6.70;;;14.50;99.90;;;;;;5053267;28;20037;-62
2023/07/23 05:34:53;;;;;;;14.40;8.07;;;14.50;99.90;;;;;;5054373;28;20095;-63
2023/07/23 05:37:19;;;;;;;14.13;7.18;;;14.50;99.90;;;;;;5053145;28;20774;-62
2023/07/23 05:39:45;;;;;;;14.15;7.05;;;14.50;99.90;;;;;;5054111;28;20128;-62
2023/07/23 05:42:11;;;;;;;12.02;7.07;;;14.40;99.90;;;;;;5062607;28;20072;-62
2023/07/23 05:44:37;;;;;;;12.20;7.43;;;14.50;99.90;;;;;;5073491;28;20203;-62
2023/07/23 05:47:03;;;;;;;11.73;7.00;;;14.50;99.90;;;;;;5074467;28;20087;-62
2023/07/23 05:49:28;;;;;;;14.07;7.68;;;14.60;99.90;;;;;;5072382;28;20184;-61
2023/07/23 05:51:54;;;;;;;14.00;7.97;;;14.60;99.90;;;;;;5074604;28;20079;-62
2023/07/23 05:54:20;;;;;;;12.85;7.57;;;14.50;99.90;;;;;;5073609;28;20442;-62
2023/07/23 05:56:46;;;;;;;14.25;8.40;;;14.50;99.90;;;;;;5073863;28;20044;-62
2023/07/23 05:59:11;;;;;;;16.17;8.63;;;14.50;99.90;;;;;;5073876;28;20078;-60
2023/07/23 06:01:37;;;;;;;15.43;8.30;;;14.50;99.90;;;;;;5073129;28;20094;-61
2023/07/23 06:04:03;;;;;;;13.95;8.23;;;14.60;99.90;;;;;;5073799;28;20041;-61
2023/07/23 06:06:28;;;;;;;15.15;8.00;;;14.60;99.90;;;;;;5072385;28;20047;-62
2023/07/23 06:08:56;;;;;;;13.30;8.73;;;14.60;99.90;;;;;;5074400;28;20480;-61
2023/07/23 06:11:21;;;;;;;13.70;8.55;;;14.60;99.90;;;;;;5072738;28;20132;-61
2023/07/23 06:13:47;;;;;;;18.13;9.27;;;14.70;99.90;;;;;;5075661;28;20427;-61
2023/07/23 06:16:13;;;;;;;14.75;8.68;;;14.60;99.90;;;;;;5077770;28;20693;-61
2023/07/23 06:18:39;;;;;;;14.88;9.25;;;14.60;99.90;;;;;;5077060;28;20095;-61
2023/07/23 06:21:04;;;;;;;16.70;9.68;;;14.60;99.90;;;;;;5078125;28;20096;-61
2023/07/23 06:23:31;;;;;;;14.55;8.40;;;14.70;99.90;;;;;;5076636;28;20076;-61
2023/07/23 06:25:57;;;;;;;15.40;8.85;;;14.80;99.90;;;;;;5078098;28;20052;-61
2023/07/23 06:28:23;;;;;;;17.33;9.05;;;14.80;99.90;;;;;;5075784;28;20062;-61
2023/07/23 06:30:55;;;;;;;14.45;8.48;;;14.80;99.90;;;;;;5077316;28;20040;-59
2023/07/23 06:33:21;;;;;;;;;;;14.80;99.90;;;;;;5078151;28;20044;-60
2023/07/23 06:35:47;;;;;;;13.85;8.98;;;14.90;99.90;;;;;;5076259;28;19935;-60
2023/07/23 06:38:14;;;;;;;18.45;9.20;;;14.80;99.90;;;;;;5076868;28;20075;-60
2023/07/23 06:40:51;;;;;;;14.52;8.20;;;15.00;99.90;;;;;;5075710;28;20083;-60
2023/07/23 06:43:18;;;;;;;15.38;8.90;;;14.90;99.90;;;;;;5074497;28;20044;-60
2023/07/23 06:45:44;;;;;;;16.33;8.82;;;15.00;99.90;;;;;;5076272;28;20871;-61
2023/07/23 06:48:12;;;;;;;13.15;8.82;;;15.10;99.90;;;;;;5058994;28;20048;-61
2023/07/23 06:50:38;;;;;;;15.15;8.48;;;15.00;99.90;;;;;;5077035;28;20155;-61
2023/07/23 06:53:04;;;;;;;15.98;9.07;;;15.10;99.90;;;;;;5076383;28;20076;-61
2023/07/23 06:55:31;;;;;;;13.65;9.13;;;15.10;99.90;;;;;;5077519;28;20044;-60
2023/07/23 06:57:57;;;;;;;16.02;8.88;;;15.00;99.90;;;;;;5076186;28;20102;-60
2023/07/23 07:00:23;;;;;;;14.68;9.80;;;15.10;99.90;;;;;;5077020;28;20055;-59
2023/07/23 07:02:48;;;;;;;16.45;9.60;;;15.10;99.90;;;;;;5076562;28;20096;-59
2023/07/23 07:05:14;;;;;;;16.60;9.48;;;15.20;99.90;;;;;;5077107;28;20451;-60
2023/07/23 07:07:40;;;;;;;15.98;10.15;;;15.20;99.90;;;;;;5077105;28;20063;-60
2023/07/23 07:10:06;;;;;;;22.42;10.95;;;15.10;99.90;;;;;;5075584;28;20047;-61
2023/07/23 07:12:32;;;;;;;15.23;9.18;;;15.10;99.90;;;;;;5076121;28;20064;-60
2023/07/23 07:14:57;;;;;;;15.43;9.80;;;15.10;99.90;;;;;;5075471;28;20044;-59
2023/07/23 07:17:23;;;;;;;15.50;9.57;;;15.20;99.90;;;;;;5077026;28;20048;-60
2023/07/23 07:19:49;;;;;;;16.73;8.93;;;15.10;99.90;;;;;;5075800;28;20159;-60
2023/07/23 07:22:15;;;;;;;15.13;8.45;;;15.20;99.90;;;;;;5076555;28;20407;-61
2023/07/23 07:24:41;;;;;;;15.45;9.15;;;15.10;99.90;;;;;;5074372;28;20128;-64
2023/07/23 07:27:10;;;;;;;14.30;8.82;;;15.20;99.90;;;;;;5075557;28;20095;-64
2023/07/23 07:29:43;;;;;;;17.77;10.13;;;15.20;99.90;;;;;;5075121;28;20040;-62
2023/07/23 07:32:09;;;;;;;18.15;10.32;;;15.30;99.90;;;;;;5075466;28;20079;-63
2023/07/23 07:34:35;;;;;;;16.67;9.48;;;15.20;99.90;;;;;;5076943;28;20075;-65
2023/07/23 07:37:00;;;;;;;18.48;10.27;;;15.20;99.90;;;;;;5074768;28;20480;-64
2023/07/23 07:39:26;;;;;;;17.23;9.63;;;15.40;99.90;;;;;;5076342;28;20052;-63
2023/07/23 07:41:53;;;;;;;20.23;9.75;;;15.40;99.90;;;;;;5076452;28;20047;-64
2023/07/23 07:44:22;;;;;;;16.85;9.95;;;15.30;99.90;;;;;;5075805;28;20050;-64
2023/07/23 07:46:47;;;;;;;15.18;9.25;;;15.40;99.90;;;;;;5076128;28;20048;-64
2023/07/23 07:49:13;;;;;;;17.77;9.75;;;15.30;99.90;;;;;;5073098;28;20063;-63
2023/07/23 07:51:43;;;;;;;17.58;9.25;;;15.30;99.90;;;;;;5058661;28;20048;-61
2023/07/23 07:54:09;;;;;;;18.90;9.27;;;15.50;99.90;;;;;;5075136;28;20048;-61
2023/07/23 07:56:35;;;;;;;20.60;9.82;;;15.50;99.90;;;;;;5076016;28;20499;-61
2023/07/23 07:59:01;;;;;;;15.45;9.32;;;15.50;99.90;;;;;;5075950;28;20052;-60
2023/07/23 08:01:27;;;;;;;19.02;9.98;;;15.40;99.90;;;;;;5075196;28;20048;-60
2023/07/23 08:03:52;;;;;;;19.88;10.23;;;15.50;99.90;;;;;;5074951;28;20044;-60
2023/07/23 08:06:18;;;;;;;18.25;10.88;;;15.40;99.90;;;;;;5074740;28;20044;-60
2023/07/23 08:08:45;;;;;;;17.80;10.32;;;15.40;99.90;;;;;;5075950;28;20058;-60
2023/07/23 08:11:12;;;;;;;17.95;11.15;;;15.40;99.90;;;;;;5074872;28;20048;-59
2023/07/23 08:13:38;;;;;;;17.73;10.70;;;15.60;99.90;;;;;;5075677;28;20124;-59
2023/07/23 08:16:05;;;;;;;19.27;10.82;;;15.60;99.90;;;;;;5075735;28;20098;-59
2023/07/23 08:18:31;;;;;;;19.45;11.18;;;15.50;99.90;;;;;;5074957;28;20424;-59
2023/07/23 08:20:58;;;;;;;19.13;11.38;;;15.60;99.90;;;;;;5075688;28;20040;-59
2023/07/23 08:23:27;;;;;;;17.00;10.98;;;15.50;99.90;;;;;;5074006;28;20110;-58
2023/07/23 08:25:57;;;;;;;17.60;11.23;;;15.60;99.90;;;;;;5075863;28;20049;-59
2023/07/23 08:28:32;;;;;;;15.10;10.93;;;15.60;99.90;;;;;;5074774;28;20090;-57
2023/07/23 08:31:00;;;;;;;18.10;10.35;;;15.60;99.90;;;;;;5075286;28;20044;-59
2023/07/23 08:33:30;;;;;;;16.17;10.68;;;15.60;99.90;;;;;;5075136;28;20041;-59
2023/07/23 08:35:57;;;;;;;15.57;10.38;;;15.60;99.90;;;;;;5074029;28;20056;-59
2023/07/23 08:38:24;;;;;;;17.80;11.35;;;15.70;99.90;;;;;;5074090;28;20044;-59
2023/07/23 08:41:00;;;;;;;19.13;13.25;;;15.70;99.90;;;;;;5073861;28;20078;-58
2023/07/23 08:43:48;;;;;;;20.63;14.02;;;15.60;99.90;;;;;;5075406;28;20119;-58
2023/07/23 08:46:27;;;;;;;18.77;15.10;;;15.60;99.90;;;;;;5075004;28;20139;-62
2023/07/23 08:48:55;;;;;;;17.80;14.52;;;15.60;99.90;;;;;;5073750;28;20044;-58
2023/07/23 08:51:25;;;;;;;20.40;15.10;;;15.60;99.90;;;;;;5074988;28;20052;-59
2023/07/23 08:53:52;;;;;;;17.48;13.57;;;15.70;99.90;;;;;;5073808;28;20048;-62
2023/07/23 08:56:18;;;;;;;19.23;14.18;;;15.70;99.90;;;;;;5074759;28;20106;-58
2023/07/23 08:58:51;;;;;;;17.83;13.52;;;15.80;99.90;;;;;;5129435;27;20738;-56
2023/07/23 09:01:17;;;;;;;16.73;13.52;;;15.80;99.90;;;;;;5128103;28;20081;-56
2023/07/23 09:03:43;;;;;;;19.85;14.05;;;15.80;99.90;;;;;;5130595;27;20051;-56
2023/07/23 09:06:10;;;;;;;17.63;13.65;;;15.80;99.90;;;;;;5130187;27;20045;-56
2023/07/23 09:08:36;;;;;;;18.63;12.38;;;15.70;99.90;;;;;;5129555;27;20384;-56
2023/07/23 09:11:04;;;;;;;16.33;12.25;;;15.80;99.90;;;;;;5129302;27;20053;-56
2023/07/23 09:13:34;;;;;;;16.60;12.60;;;15.80;99.90;;;;;;5129231;27;20081;-56
2023/07/23 09:16:00;;;;;;;15.82;12.65;;;15.70;99.90;;;;;;5129404;27;20039;-55
2023/07/23 09:18:27;;;;;;;18.65;12.43;;;15.80;99.90;;;;;;5129202;27;20050;-56
2023/07/23 09:20:52;;;;;;;16.02;12.15;;;15.80;99.90;;;;;;5129321;27;20031;-56
2023/07/23 09:23:18;;;;;;;18.15;12.85;;;15.80;99.90;;;;;;5129230;28;20485;-56
2023/07/23 09:25:44;;;;;;;17.20;12.27;;;15.70;99.90;;;;;;5127869;27;20089;-56
2023/07/23 09:28:26;;;;;;;19.67;12.32;;;15.80;99.90;;;;;;5127572;28;20047;-56
2023/07/23 09:30:57;;;;;;;18.00;12.63;;;15.80;99.90;;;;;;5128865;27;20078;-56
2023/07/23 09:33:51;;;;;;;16.40;11.32;;;15.80;99.90;;;;;;5128636;27;20104;-55
2023/07/23 09:36:23;;;;;;;18.10;11.45;;;15.80;99.90;;;;;;5126887;28;20089;-56
2023/07/23 09:38:57;;;;;;;15.68;11.55;;;15.80;99.90;;;;;;5128845;27;20048;-55
2023/07/23 09:41:25;;;;;;;15.70;11.43;;;15.90;99.90;;;;;;5128636;27;20039;-56
2023/07/23 09:43:51;;;;;;;17.10;11.77;;;15.90;99.90;;;;;;5128749;27;20502;-56
2023/07/23 09:46:17;;;;;;;16.27;11.52;;;15.90;99.90;;;;;;5128615;27;20039;-56
2023/07/23 09:48:48;;;;;;;17.27;12.02;;;16.00;99.90;;;;;;5127479;27;20089;-55
2023/07/23 09:51:14;;;;;;;17.25;11.32;;;16.00;99.90;;;;;;5128359;27;20055;-55
2023/07/23 09:53:47;;;;;;;16.85;11.38;;;16.00;99.90;;;;;;5128676;27;20112;-56
2023/07/23 09:56:18;;;;;;;18.02;11.40;;;16.00;99.90;;;;;;5128338;27;20043;-56
2023/07/23 09:58:48;;;;;;;17.92;11.48;;;16.00;99.90;;;;;;5127749;27;20051;-56
2023/07/23 10:01:16;;;;;;;19.05;12.65;;;16.00;99.90;;;;;;5128488;27;20457;-56
2023/07/23 10:03:47;;;;;;;18.55;12.88;;;16.00;99.90;;;;;;5127044;28;20050;-56
2023/07/23 10:06:15;;;;;;;16.80;12.20;;;15.90;99.90;;;;;;5128455;27;20043;-56
2023/07/23 10:08:43;;;;;;;19.80;12.65;;;15.80;99.90;;;;;;5122726;27;20043;-56
2023/07/23 10:11:12;;;;;;;19.60;12.85;;;15.90;99.90;;;;;;5113492;28;20065;-56
2023/07/23 10:13:39;;;;;;;19.45;12.93;;;16.00;99.90;;;;;;5113056;28;20522;-55
2023/07/23 10:16:24;;;;;;;17.90;12.20;;;16.00;99.90;;;;;;5114041;28;20051;-56
2023/07/23 10:18:51;;;;;;;20.33;13.32;;;16.00;99.90;;;;;;5114294;28;20040;-56
2023/07/23 10:21:20;;;;;;;18.95;12.18;;;16.00;99.90;;;;;;5114343;28;20674;-56
2023/07/23 10:23:56;;;;;;;20.83;11.75;;;16.10;99.90;;;;;;5114457;28;20074;-56
2023/07/23 10:26:24;;;;;;;16.35;11.43;;;16.00;99.90;;;;;;5114407;28;20032;-56
2023/07/23 10:28:56;;;;;;;17.73;12.10;;;16.10;99.90;;;;;;5114283;28;20483;-56
2023/07/23 10:31:24;;;;;;;15.45;11.20;;;16.10;99.90;;;;;;5114180;27;20040;-56
2023/07/23 10:33:51;;;;;;;18.02;10.80;;;16.10;99.90;;;;;;5114269;28;20047;-56
2023/07/23 10:36:18;;;;;;;18.38;11.82;;;16.10;99.90;;;;;;5114179;28;20024;-56
2023/07/23 10:38:44;;;;;;;18.23;11.15;;;16.10;99.90;;;;;;5113609;28;20051;-56
2023/07/23 10:41:09;;;;;;;17.10;11.05;;;16.10;99.90;;;;;;5113095;28;20028;-56
2023/07/23 10:43:48;;;;;;;17.92;11.73;;;16.20;99.90;;;;;;5114151;28;20035;-56
2023/07/23 10:46:18;;;;;;;16.73;10.88;;;16.20;99.90;;;;;;5112868;28;20128;-55
2023/07/23 10:48:48;;;;;;;16.98;11.25;;;16.20;99.90;;;;;;5114068;28;20426;-55
2023/07/23 10:51:15;;;;;;;16.40;10.68;;;16.30;99.90;;;;;;5113694;28;20075;-56
2023/07/23 10:54:05;;;;;;;20.05;11.52;;;16.40;99.90;;;;;;5112308;28;20039;-55
2023/07/23 10:56:39;;;;;;;17.83;10.60;;;16.50;99.90;;;;;;5113346;28;20032;-56
2023/07/23 10:59:12;;;;;;;21.00;10.23;;;16.60;99.90;;;;;;5113885;28;20052;-56
2023/07/23 11:01:44;;;;;;;17.13;10.38;;;16.60;99.90;;;;;;5112592;28;20040;-56
2023/07/23 11:04:14;;;;;;;18.52;10.02;;;16.50;99.90;;;;;;5113762;28;20445;-56
2023/07/23 11:07:01;;;;;;;17.10;10.50;;;16.60;99.90;;;;;;5111875;28;20661;-56
2023/07/23 11:09:37;;;;;;;17.13;10.32;;;16.60;99.90;;;;;;5096194;28;20392;-55
2023/07/23 11:12:05;;;;;;;16.98;9.95;;;16.60;99.90;;;;;;5093181;28;20048;-56
2023/07/23 11:14:32;;;;;;;16.40;10.48;;;16.70;99.90;;;;;;5093076;28;20055;-56
2023/07/23 11:16:59;;;;;;;16.13;9.93;;;16.60;99.90;;;;;;5092777;28;20069;-56
2023/07/23 11:19:26;;;;;;;17.02;10.50;;;16.70;99.90;;;;;;5093587;28;20048;-56
2023/07/23 11:21:56;;;;;;;18.45;10.80;;;16.60;99.90;;;;;;5109543;28;20027;-56
2023/07/23 11:24:23;;;;;;;18.10;10.90;;;16.70;99.90;;;;;;5113853;28;20114;-56
2023/07/23 11:26:50;;;;;;;17.20;10.70;;;16.70;99.90;;;;;;5113654;28;20137;-56
2023/07/23 11:29:16;;;;;;;14.65;9.77;;;16.70;99.90;;;;;;5113814;28;20054;-56
2023/07/23 11:31:42;;;;;;;14.30;9.27;;;16.80;99.90;;;;;;5113621;28;20043;-56
2023/07/23 11:34:08;;;;;;;14.80;9.65;;;16.70;99.90;;;;;;5113737;28;20039;-56
2023/07/23 11:36:36;;;;;;;14.68;9.77;;;16.70;99.90;;;;;;5113641;28;20123;-56
2023/07/23 11:39:03;;;;;;;15.27;9.77;;;16.70;99.90;;;;;;5112558;28;20051;-56
2023/07/23 11:41:34;;;;;;;17.08;10.05;;;16.60;99.90;;;;;;5113435;28;20075;-56
2023/07/23 11:44:03;;;;;;;15.10;9.45;;;16.60;99.90;;;;;;5113626;27;20135;-56
2023/07/23 11:46:33;;;;;;;14.63;10.15;;;16.60;99.90;;;;;;5113482;28;20035;-56
2023/07/23 11:49:00;;;;;;;15.93;10.48;;;16.70;99.90;;;;;;5112226;28;20044;-56
2023/07/23 11:51:32;;;;;;;16.73;10.20;;;16.60;99.90;;;;;;5113381;28;20034;-57
2023/07/23 11:54:07;;;;;;;13.82;9.07;;;16.50;99.90;;;;;;5113133;28;20547;-56
2023/07/23 11:56:48;;;;;;;15.77;9.98;;;16.50;99.90;;;;;;5112895;28;20051;-56
2023/07/23 11:59:16;;;;;;;15.25;10.30;;;16.50;99.90;;;;;;5113504;28;20039;-56
2023/07/23 12:01:42;;;;;;;15.15;10.05;;;16.50;99.90;;;;;;5113311;27;20043;-56
2023/07/23 12:04:09;;;;;;;17.92;10.50;;;16.60;99.90;;;;;;5113217;28;20086;-56
2023/07/23 12:06:37;;;;;;;17.52;10.20;;;16.60;99.90;;;;;;5113075;28;20035;-55
2023/07/23 12:09:08;;;;;;;17.85;11.10;;;16.50;99.90;;;;;;5113071;28;20079;-56
2023/07/23 12:11:37;;;;;;;15.23;10.07;;;16.60;99.90;;;;;;5113143;28;20035;-56
2023/07/23 12:14:05;;;;;;;18.10;11.50;;;16.50;99.90;;;;;;5113062;28;20515;-56
2023/07/23 12:16:42;;;;;;;15.13;10.30;;;16.60;99.90;;;;;;5112717;28;20047;-56
2023/07/23 12:19:13;;;;;;;16.58;9.60;;;16.60;99.90;;;;;;5112641;28;20053;-56
2023/07/23 12:21:41;;;;;;;15.18;9.57;;;16.70;99.90;;;;;;5112568;28;20043;-56
2023/07/23 12:24:15;;;;;;;16.20;10.23;;;16.60;99.90;;;;;;5109523;28;20028;-56
2023/07/23 12:26:42;;;;;;;14.43;10.02;;;16.70;99.90;;;;;;5092345;28;20032;-56
2023/07/23 12:29:07;;;;;;;14.48;9.68;;;16.70;99.90;;;;;;5092220;28;20048;-57
2023/07/23 12:31:41;;;;;;;13.68;8.82;;;16.70;99.90;;;;;;5090823;28;20190;-57
2023/07/23 12:34:08;;;;;;;13.27;8.90;;;16.80;99.90;;;;;;5092483;28;20082;-57